createdAt,value
2023-05-24T00:00:38.229Z,13.50
2023-05-24T00:03:07.615Z,13.50
2023-05-24T00:05:37.869Z,13.50
2023-05-24T00:08:06.988Z,13.40
2023-05-24T00:10:36.206Z,13.40
2023-05-24T00:13:06.473Z,13.40
2023-05-24T00:15:36.254Z,13.40
2023-05-24T00:18:03.381Z,13.40
2023-05-24T00:20:30.466Z,13.30
2023-05-24T00:23:00.145Z,13.40
2023-05-24T00:25:27.099Z,13.40
2023-05-24T00:27:54.348Z,13.40
2023-05-24T00:30:25.450Z,13.40
2023-05-24T00:32:52.534Z,13.40
2023-05-24T00:35:19.548Z,13.40
2023-05-24T00:37:46.885Z,13.30
2023-05-24T00:40:18.541Z,13.30
2023-05-24T00:42:45.678Z,13.40
2023-05-24T00:45:13.019Z,13.40
2023-05-24T00:47:43.254Z,13.40
2023-05-24T00:50:13.199Z,13.30
2023-05-24T00:52:42.385Z,13.30
2023-05-24T00:55:10.141Z,13.30
2023-05-24T00:57:39.921Z,13.10
2023-05-24T01:00:09.599Z,13.20
2023-05-24T01:02:37.895Z,13.20
2023-05-24T01:05:05.998Z,13.10
2023-05-24T01:07:58.285Z,13.10
2023-05-24T01:10:59.728Z,13.20
2023-05-24T01:13:54.418Z,13.10
2023-05-24T01:16:46.706Z,13.10
2023-05-24T01:19:51.788Z,13.00
2023-05-24T01:23:03.886Z,13.10
2023-05-24T01:25:49.688Z,13.10
2023-05-24T01:28:21.003Z,13.10
2023-05-24T01:30:54.833Z,13.10
2023-05-24T01:33:24.224Z,13.10
2023-05-24T01:35:53.572Z,13.10
2023-05-24T01:38:22.683Z,13.00
2023-05-24T01:41:02.383Z,13.00
2023-05-24T01:43:35.700Z,13.00
2023-05-24T01:46:28.649Z,12.90
2023-05-24T01:49:21.160Z,13.00
2023-05-24T01:52:00.596Z,12.90
2023-05-24T01:54:33.553Z,12.90
2023-05-24T01:57:09.045Z,12.90
2023-05-24T01:59:40.334Z,13.00
2023-05-24T02:02:07.536Z,13.00
2023-05-24T02:04:34.614Z,12.90
2023-05-24T02:07:01.595Z,12.80
2023-05-24T02:09:31.189Z,12.80
2023-05-24T02:11:58.313Z,12.80
2023-05-24T02:14:26.410Z,12.80
2023-05-24T02:16:58.847Z,12.80
2023-05-24T02:19:26.372Z,12.80
2023-05-24T02:21:55.653Z,12.90
2023-05-24T02:24:25.113Z,12.90
2023-05-24T02:26:52.019Z,13.00
2023-05-24T02:29:22.091Z,13.00
2023-05-24T02:31:55.000Z,12.80
2023-05-24T02:34:23.462Z,12.80
2023-05-24T02:36:51.977Z,12.70
2023-05-24T02:39:19.106Z,12.60
2023-05-24T02:41:46.189Z,12.60
2023-05-24T02:44:13.339Z,12.60
2023-05-24T02:46:40.633Z,12.50
2023-05-24T02:49:07.586Z,12.50
2023-05-24T02:51:34.562Z,12.50
2023-05-24T02:54:02.456Z,12.50
2023-05-24T02:56:29.937Z,12.50
2023-05-24T02:58:57.498Z,12.40
2023-05-24T03:01:24.675Z,12.40
2023-05-24T03:03:53.612Z,12.40
2023-05-24T03:06:20.950Z,12.40
2023-05-24T03:08:49.384Z,12.40
2023-05-24T03:11:22.276Z,12.40
2023-05-24T03:13:49.775Z,12.30
2023-05-24T03:16:17.158Z,12.20
2023-05-24T03:18:47.328Z,12.20
2023-05-24T03:21:15.389Z,12.20
2023-05-24T03:23:44.771Z,12.30
2023-05-24T03:26:13.984Z,12.30
2023-05-24T03:28:41.035Z,12.20
2023-05-24T03:31:08.736Z,12.10
2023-05-24T03:33:37.015Z,12.10
2023-05-24T03:36:04.475Z,12.20
2023-05-24T03:38:33.776Z,12.20
2023-05-24T03:41:02.525Z,12.20
2023-05-24T03:43:29.773Z,12.30
2023-05-24T03:46:02.773Z,12.30
2023-05-24T03:48:32.061Z,12.30
2023-05-24T03:50:59.430Z,12.30
2023-05-24T03:53:26.451Z,12.30
2023-05-24T03:55:54.650Z,12.30
2023-05-24T03:58:22.564Z,12.20
2023-05-24T04:00:50.980Z,12.20
2023-05-24T04:03:20.119Z,12.10
2023-05-24T04:05:48.109Z,12.10
2023-05-24T04:08:15.267Z,12.20
2023-05-24T04:10:42.625Z,12.20
2023-05-24T04:13:12.893Z,12.20
2023-05-24T04:15:40.921Z,12.20
2023-05-24T04:18:08.093Z,12.30
2023-05-24T04:20:35.255Z,12.30
2023-05-24T04:23:02.603Z,12.30
2023-05-24T04:25:33.623Z,12.30
2023-05-24T04:28:02.481Z,12.30
2023-05-24T04:30:31.856Z,12.30
2023-05-24T04:32:59.225Z,12.40
2023-05-24T04:35:30.318Z,12.40
2023-05-24T04:37:57.796Z,12.50
2023-05-24T04:40:24.958Z,12.50
2023-05-24T04:42:57.139Z,12.60
2023-05-24T04:45:25.293Z,12.60
2023-05-24T04:47:52.450Z,12.70
2023-05-24T04:50:20.186Z,12.70
2023-05-24T04:52:47.353Z,12.70
2023-05-24T04:55:16.662Z,12.70
2023-05-24T04:57:44.628Z,12.70
2023-05-24T05:00:18.037Z,12.70
2023-05-24T05:02:47.841Z,12.70
2023-05-24T05:05:17.298Z,12.80
2023-05-24T05:07:47.259Z,12.80
2023-05-24T05:10:18.945Z,12.90
2023-05-24T05:12:51.356Z,12.90
2023-05-24T05:15:21.086Z,12.90
2023-05-24T05:17:48.128Z,12.90
2023-05-24T05:20:15.543Z,12.90
2023-05-24T05:22:51.807Z,12.80
2023-05-24T05:25:21.334Z,12.80
2023-05-24T05:27:52.684Z,12.80
2023-05-24T05:30:19.787Z,12.80
2023-05-24T05:32:46.939Z,12.90
2023-05-24T05:35:14.422Z,12.90
2023-05-24T05:37:41.343Z,12.90
2023-05-24T05:40:11.082Z,13.00
2023-05-24T05:42:38.045Z,13.20
2023-05-24T05:45:10.580Z,13.30
2023-05-24T05:47:37.473Z,13.40
2023-05-24T05:50:07.552Z,13.40
2023-05-24T05:52:34.550Z,13.40
2023-05-24T05:55:01.763Z,13.40
2023-05-24T05:57:30.886Z,13.40
2023-05-24T05:59:57.833Z,13.20
2023-05-24T06:02:24.898Z,13.30
2023-05-24T06:04:54.076Z,13.30
2023-05-24T06:07:21.400Z,13.20
2023-05-24T06:09:50.506Z,13.50
2023-05-24T06:12:17.522Z,13.50
2023-05-24T06:14:44.492Z,13.60
2023-05-24T06:17:13.846Z,13.70
2023-05-24T06:19:43.574Z,13.60
2023-05-24T06:22:10.950Z,13.80
2023-05-24T06:24:40.209Z,13.90
2023-05-24T06:27:07.558Z,14.00
2023-05-24T06:29:39.103Z,13.90
2023-05-24T06:32:06.415Z,14.00
2023-05-24T06:34:33.276Z,14.00
2023-05-24T06:37:00.167Z,14.10
2023-05-24T06:39:27.106Z,14.20
2023-05-24T06:41:54.009Z,14.40
2023-05-24T06:44:31.062Z,14.60
2023-05-24T06:46:58.277Z,14.40
2023-05-24T06:49:27.546Z,14.10
2023-05-24T06:51:54.660Z,14.10
2023-05-24T06:54:21.760Z,13.90
2023-05-24T06:56:48.687Z,13.90
2023-05-24T06:59:15.755Z,13.80
2023-05-24T07:01:43.908Z,13.80
2023-05-24T07:04:11.706Z,13.80
2023-05-24T07:06:41.132Z,13.80
2023-05-24T07:09:10.622Z,13.80
2023-05-24T07:11:37.647Z,14.00
2023-05-24T07:14:04.739Z,14.00
2023-05-24T07:16:32.386Z,14.20
2023-05-24T07:19:00.365Z,14.30
2023-05-24T07:21:28.368Z,14.10
2023-05-24T07:23:55.678Z,14.30
2023-05-24T07:26:24.947Z,14.20
2023-05-24T07:28:52.225Z,14.50
2023-05-24T07:31:19.121Z,14.70
2023-05-24T07:33:46.133Z,14.80
2023-05-24T07:36:16.256Z,14.70
2023-05-24T07:38:47.875Z,14.70
2023-05-24T07:41:14.860Z,14.70
2023-05-24T07:43:44.073Z,14.90
2023-05-24T07:46:13.389Z,15.00
2023-05-24T07:48:40.460Z,14.70
2023-05-24T07:51:12.489Z,14.40
2023-05-24T07:53:40.187Z,14.40
2023-05-24T07:56:08.048Z,14.50
2023-05-24T07:58:37.733Z,14.60
2023-05-24T08:01:04.781Z,14.80
2023-05-24T08:03:32.530Z,14.70
2023-05-24T08:06:01.929Z,14.60
2023-05-24T08:08:29.631Z,14.70
2023-05-24T08:10:56.739Z,14.40
2023-05-24T08:13:24.526Z,14.10
2023-05-24T08:15:51.492Z,13.90
2023-05-24T08:18:20.775Z,14.00
2023-05-24T08:20:47.767Z,13.80
2023-05-24T08:23:14.729Z,13.80
2023-05-24T08:25:44.339Z,14.20
2023-05-24T08:28:13.983Z,14.60
2023-05-24T08:30:48.644Z,14.50
2023-05-24T08:33:16.048Z,14.50
2023-05-24T08:35:45.587Z,14.80
2023-05-24T08:38:12.668Z,15.10
2023-05-24T08:40:42.755Z,15.10
2023-05-24T08:43:12.242Z,14.90
2023-05-24T08:45:40.137Z,15.10
2023-05-24T08:48:14.036Z,15.30
2023-05-24T08:50:44.179Z,15.30
2023-05-24T08:53:12.948Z,15.60
2023-05-24T08:55:44.235Z,15.70
2023-05-24T08:58:11.761Z,15.80
2023-05-24T09:00:41.141Z,15.80
2023-05-24T09:03:09.736Z,15.70
2023-05-24T09:05:41.740Z,16.40
2023-05-24T09:08:12.080Z,17.10
2023-05-24T09:10:53.961Z,17.00
2023-05-24T09:13:24.995Z,16.20
2023-05-24T09:15:53.914Z,16.50
2023-05-24T09:18:21.190Z,16.60
2023-05-24T09:20:48.371Z,16.50
2023-05-24T09:23:16.369Z,16.40
2023-05-24T09:25:47.708Z,16.50
2023-05-24T09:28:19.172Z,16.90
2023-05-24T09:31:14.610Z,17.60
2023-05-24T09:33:41.575Z,18.10
2023-05-24T09:36:11.196Z,18.30
2023-05-24T09:38:38.192Z,18.10
2023-05-24T09:41:06.570Z,18.00
2023-05-24T09:43:34.991Z,17.30
2023-05-24T09:46:05.723Z,16.40
2023-05-24T09:48:32.931Z,16.10
2023-05-24T09:51:00.403Z,16.00
2023-05-24T09:53:27.567Z,16.10
2023-05-24T09:55:54.986Z,16.10
2023-05-24T09:58:24.697Z,16.10
2023-05-24T10:01:05.166Z,16.30
2023-05-24T10:03:34.516Z,15.90
2023-05-24T10:06:04.866Z,16.40
2023-05-24T10:08:36.824Z,15.30
2023-05-24T10:11:06.685Z,15.40
2023-05-24T10:13:36.081Z,15.40
2023-05-24T10:16:03.992Z,15.70
2023-05-24T10:18:31.373Z,15.90
2023-05-24T10:20:59.569Z,15.90
2023-05-24T10:23:31.084Z,15.70
2023-05-24T10:26:14.027Z,15.80
2023-05-24T10:28:48.826Z,15.80
2023-05-24T10:31:22.137Z,15.70
2023-05-24T10:33:54.460Z,15.70
2023-05-24T10:36:26.323Z,15.70
2023-05-24T10:38:54.062Z,15.70
2023-05-24T10:41:21.125Z,15.60
2023-05-24T10:44:00.947Z,15.80
2023-05-24T10:46:35.346Z,15.90
2023-05-24T10:49:04.496Z,16.10
2023-05-24T10:51:41.392Z,15.70
2023-05-24T10:54:19.390Z,15.60
2023-05-24T10:56:51.645Z,15.50
2023-05-24T10:59:34.838Z,15.40
2023-05-24T11:02:06.136Z,15.20
2023-05-24T11:04:36.791Z,15.30
2023-05-24T11:07:11.656Z,15.20
2023-05-24T11:09:46.980Z,15.20
2023-05-24T11:12:20.763Z,15.40
2023-05-24T11:15:00.826Z,15.50
2023-05-24T11:17:30.090Z,15.40
2023-05-24T11:19:57.699Z,15.10
2023-05-24T11:22:52.413Z,14.70
2023-05-24T11:25:19.778Z,14.50
2023-05-24T11:27:46.885Z,14.40
2023-05-24T11:30:29.613Z,14.50
2023-05-24T11:32:59.386Z,14.60
2023-05-24T11:35:30.155Z,14.70
2023-05-24T11:37:57.812Z,14.60
2023-05-24T11:40:26.263Z,14.60
2023-05-24T11:42:54.467Z,14.40
2023-05-24T11:45:21.562Z,14.50
2023-05-24T11:47:51.430Z,14.30
2023-05-24T11:50:45.817Z,14.10
2023-05-24T11:53:12.681Z,14.40
2023-05-24T11:55:41.411Z,14.50
2023-05-24T11:58:26.337Z,14.60
2023-05-24T12:00:53.512Z,14.60
2023-05-24T12:03:23.354Z,14.30
2023-05-24T12:05:53.016Z,14.20
2023-05-24T12:08:20.517Z,14.40
2023-05-24T12:10:49.306Z,14.80
2023-05-24T12:13:23.397Z,15.30
2023-05-24T12:15:56.776Z,15.60
2023-05-24T12:18:26.337Z,15.90
2023-05-24T12:20:53.594Z,16.40
2023-05-24T12:23:23.502Z,16.80
2023-05-24T12:26:00.650Z,16.40
2023-05-24T12:28:36.088Z,16.70
2023-05-24T12:31:04.734Z,16.80
2023-05-24T12:33:32.178Z,17.10
2023-05-24T12:36:01.843Z,17.30
2023-05-24T12:38:28.813Z,17.00
2023-05-24T12:41:11.479Z,16.90
2023-05-24T12:43:44.512Z,17.00
2023-05-24T12:46:11.741Z,17.20
2023-05-24T12:48:38.855Z,16.40
2023-05-24T12:51:08.906Z,16.40
2023-05-24T12:53:36.766Z,16.20
2023-05-24T12:56:03.912Z,15.90
2023-05-24T12:58:30.808Z,16.00
2023-05-24T13:00:57.845Z,16.00
2023-05-24T13:03:24.873Z,16.00
2023-05-24T13:05:52.032Z,16.30
2023-05-24T13:08:19.032Z,15.70
2023-05-24T13:10:49.530Z,15.70
2023-05-24T13:13:19.221Z,15.50
2023-05-24T13:15:49.067Z,15.30
2023-05-24T13:18:16.666Z,15.40
2023-05-24T13:20:44.216Z,15.50
2023-05-24T13:23:11.674Z,15.50
2023-05-24T13:25:41.160Z,15.60
2023-05-24T13:28:09.435Z,15.80
2023-05-24T13:30:39.706Z,16.00
2023-05-24T13:33:07.980Z,16.30
2023-05-24T13:35:35.042Z,16.50
2023-05-24T13:38:02.160Z,16.60
2023-05-24T13:40:31.803Z,16.80
2023-05-24T13:42:59.391Z,17.10
2023-05-24T13:45:27.725Z,17.30
2023-05-24T13:47:58.421Z,17.60
2023-05-24T13:50:26.916Z,17.30
2023-05-24T13:52:54.553Z,17.60
2023-05-24T13:55:21.580Z,17.80
2023-05-24T13:57:52.086Z,17.70
2023-05-24T14:00:22.629Z,17.40
2023-05-24T14:02:52.468Z,17.50
2023-05-24T14:07:50.698Z,17.60
2023-05-24T14:10:21.565Z,17.80
2023-05-24T14:12:59.680Z,17.90
2023-05-24T14:15:34.013Z,17.80
2023-05-24T14:18:02.135Z,17.60
2023-05-24T14:20:29.105Z,17.40
2023-05-24T14:22:58.696Z,17.40
2023-05-24T14:25:26.828Z,17.10
2023-05-24T14:27:54.110Z,16.90
2023-05-24T14:30:20.989Z,17.00
2023-05-24T14:32:47.901Z,17.10
2023-05-24T14:35:17.530Z,17.20
2023-05-24T14:37:46.681Z,17.30
2023-05-24T14:40:19.165Z,17.40
2023-05-24T14:42:48.608Z,17.50
2023-05-24T14:45:15.564Z,17.70
2023-05-24T14:47:42.446Z,17.80
2023-05-24T14:50:09.692Z,17.90
2023-05-24T14:52:39.190Z,18.00
2023-05-24T14:55:07.338Z,17.90
2023-05-24T14:57:34.339Z,17.90
2023-05-24T15:00:01.547Z,18.10
2023-05-24T15:02:34.422Z,18.00
2023-05-24T15:05:03.842Z,18.10
2023-05-24T15:07:30.969Z,18.10
2023-05-24T15:10:00.193Z,17.90
2023-05-24T15:12:27.332Z,17.90
2023-05-24T15:14:54.646Z,17.80
2023-05-24T15:17:22.149Z,17.90
2023-05-24T15:19:49.279Z,18.10
2023-05-24T15:22:16.328Z,18.40
2023-05-24T15:24:43.365Z,18.80
2023-05-24T15:27:10.804Z,19.10
2023-05-24T15:29:37.832Z,19.10
2023-05-24T15:32:05.056Z,18.80
2023-05-24T15:34:35.522Z,18.50
2023-05-24T15:37:02.838Z,17.90
2023-05-24T15:39:30.016Z,17.80
2023-05-24T15:41:59.200Z,17.90
2023-05-24T15:44:26.275Z,18.40
2023-05-24T15:46:53.289Z,18.80
2023-05-24T15:49:24.258Z,19.00
2023-05-24T15:54:21.264Z,18.90
2023-05-24T15:56:50.870Z,18.40
2023-05-24T15:59:19.728Z,17.80
2023-05-24T16:01:51.604Z,17.30
2023-05-24T16:04:19.244Z,17.00
2023-05-24T16:06:49.321Z,16.90
2023-05-24T16:09:17.887Z,16.90
2023-05-24T16:11:48.985Z,17.00
2023-05-24T16:14:16.779Z,17.40
2023-05-24T16:16:47.441Z,17.90
2023-05-24T16:19:14.859Z,18.30
2023-05-24T16:21:42.006Z,18.30
2023-05-24T16:24:09.272Z,18.10
2023-05-24T16:26:36.518Z,17.70
2023-05-24T16:29:10.566Z,17.20
2023-05-24T16:31:39.816Z,16.90
2023-05-24T16:34:06.871Z,16.60
2023-05-24T16:36:38.555Z,16.30
2023-05-24T16:39:05.615Z,16.30
2023-05-24T16:41:37.353Z,16.30
2023-05-24T16:44:07.295Z,16.80
2023-05-24T16:46:34.768Z,17.70
2023-05-24T16:49:04.172Z,17.90
2023-05-24T16:51:31.178Z,17.60
2023-05-24T16:53:58.296Z,17.30
2023-05-24T16:56:27.484Z,17.00
2023-05-24T16:58:57.486Z,17.30
2023-05-24T17:01:24.471Z,18.90
2023-05-24T17:03:51.772Z,20.20
2023-05-24T17:06:18.710Z,21.40
2023-05-24T17:08:45.859Z,22.00
2023-05-24T17:11:14.781Z,22.40
2023-05-24T17:13:41.759Z,22.00
2023-05-24T17:16:08.918Z,22.50
2023-05-24T17:18:36.005Z,22.60
2023-05-24T17:21:04.712Z,22.30
2023-05-24T17:23:34.063Z,22.50
2023-05-24T17:26:02.979Z,23.00
2023-05-24T17:28:30.299Z,23.30
2023-05-24T17:30:58.683Z,23.40
2023-05-24T17:33:28.052Z,23.40
2023-05-24T17:35:58.629Z,23.70
2023-05-24T17:38:28.641Z,23.70
2023-05-24T17:40:59.671Z,23.80
2023-05-24T17:43:32.613Z,23.70
2023-05-24T17:46:06.528Z,23.70
2023-05-24T17:48:36.396Z,23.40
2023-05-24T17:51:10.494Z,23.10
2023-05-24T17:53:38.402Z,22.20
2023-05-24T17:56:06.719Z,20.50
2023-05-24T17:58:36.569Z,20.20
2023-05-24T18:01:08.258Z,20.20
2023-05-24T18:03:38.244Z,19.60
2023-05-24T18:06:08.763Z,18.70
2023-05-24T18:08:38.186Z,17.60
2023-05-24T18:11:09.632Z,16.80
2023-05-24T18:13:43.280Z,16.10
2023-05-24T18:16:14.223Z,15.60
2023-05-24T18:18:41.700Z,15.30
2023-05-24T18:21:09.889Z,15.00
2023-05-24T18:23:38.469Z,14.70
2023-05-24T18:26:10.222Z,14.50
2023-05-24T18:28:38.916Z,14.30
2023-05-24T18:31:14.699Z,14.20
2023-05-24T18:33:42.170Z,13.90
2023-05-24T18:36:09.252Z,13.60
2023-05-24T18:38:37.094Z,13.40
2023-05-24T18:41:06.367Z,13.30
2023-05-24T18:43:34.162Z,13.10
2023-05-24T18:46:01.870Z,12.90
2023-05-24T18:48:28.877Z,12.80
2023-05-24T18:50:58.489Z,12.70
2023-05-24T18:53:26.072Z,12.60
2023-05-24T18:55:53.089Z,12.50
2023-05-24T18:58:20.291Z,12.40
2023-05-24T19:00:47.670Z,12.30
2023-05-24T19:03:14.954Z,12.10
2023-05-24T19:05:44.065Z,12.10
2023-05-24T19:08:37.189Z,12.00
2023-05-24T19:11:04.495Z,12.00
2023-05-24T19:13:31.627Z,11.90
2023-05-24T19:16:00.704Z,11.80
2023-05-24T19:18:27.743Z,11.70
2023-05-24T19:20:56.900Z,11.60
2023-05-24T19:23:24.015Z,11.60
2023-05-24T19:25:51.014Z,11.40
2023-05-24T19:28:17.945Z,11.40
2023-05-24T19:30:47.257Z,11.20
2023-05-24T19:33:14.324Z,11.20
2023-05-24T19:35:42.084Z,11.20
2023-05-24T19:38:12.335Z,11.10
2023-05-24T19:40:41.709Z,11.00
2023-05-24T19:43:08.724Z,10.80
2023-05-24T19:45:37.857Z,10.70
2023-05-24T19:48:05.372Z,10.50
2023-05-24T19:50:34.825Z,10.50
2023-05-24T19:53:01.767Z,10.40
2023-05-24T19:55:28.992Z,10.30
2023-05-24T19:57:55.885Z,10.20
2023-05-24T20:00:22.874Z,10.10
2023-05-24T20:02:52.454Z,10.10
2023-05-24T20:05:19.471Z,10.30
2023-05-24T20:07:48.633Z,10.30
2023-05-24T20:10:15.623Z,10.40
2023-05-24T20:12:45.091Z,10.40
2023-05-24T20:15:16.314Z,10.20
2023-05-24T20:17:48.510Z,10.10
2023-05-24T20:20:16.147Z,9.90
2023-05-24T20:22:45.428Z,9.80
2023-05-24T20:25:12.456Z,9.80
2023-05-24T20:27:41.502Z,9.80
2023-05-24T20:30:10.222Z,9.80
2023-05-24T20:32:40.933Z,9.80
2023-05-24T20:35:08.891Z,9.90
2023-05-24T20:37:36.394Z,9.90
2023-05-24T20:40:05.838Z,10.00
2023-05-24T20:42:35.698Z,10.00
2023-05-24T20:45:07.495Z,10.10
2023-05-24T20:47:34.416Z,10.20
2023-05-24T20:50:01.452Z,10.30
2023-05-24T20:52:28.679Z,10.40
2023-05-24T20:55:02.013Z,10.50
2023-05-24T20:57:29.024Z,10.50
2023-05-24T20:59:58.359Z,10.50
2023-05-24T21:02:28.831Z,10.60
2023-05-24T21:04:56.561Z,10.50
2023-05-24T21:07:23.854Z,10.50
2023-05-24T21:09:50.827Z,10.50
2023-05-24T21:12:17.890Z,10.40
2023-05-24T21:14:47.352Z,10.40
2023-05-24T21:17:15.050Z,10.30
2023-05-24T21:19:42.179Z,10.20
2023-05-24T21:22:09.560Z,10.10
2023-05-24T21:24:38.826Z,10.00
2023-05-24T21:27:06.001Z,10.00
2023-05-24T21:29:38.271Z,10.00
2023-05-24T21:32:05.423Z,10.00
2023-05-24T21:34:32.703Z,10.00
2023-05-24T21:37:01.982Z,10.00
2023-05-24T21:39:32.317Z,10.10
2023-05-24T21:42:02.259Z,10.20
2023-05-24T21:44:29.311Z,10.30
2023-05-24T21:46:58.436Z,10.40
2023-05-24T21:49:26.061Z,10.40
2023-05-24T21:51:53.378Z,10.50
2023-05-24T21:54:20.738Z,10.50
2023-05-24T21:56:52.724Z,10.60
2023-05-24T21:59:21.688Z,10.70
2023-05-24T22:01:51.294Z,10.80
2023-05-24T22:04:19.227Z,10.80
2023-05-24T22:06:46.460Z,10.80
2023-05-24T22:09:17.335Z,10.80
2023-05-24T22:11:46.615Z,10.80
2023-05-24T22:14:13.644Z,10.90
2023-05-24T22:16:43.636Z,10.90
2023-05-24T22:19:16.311Z,10.90
2023-05-24T22:21:43.949Z,10.90
2023-05-24T22:24:13.910Z,10.90
2023-05-24T22:26:46.942Z,10.90
2023-05-24T22:29:14.776Z,10.80
2023-05-24T22:31:42.146Z,10.70
2023-05-24T22:34:13.597Z,10.60
2023-05-24T22:36:41.282Z,10.50
2023-05-24T22:39:11.754Z,10.40
2023-05-24T22:41:38.854Z,10.30
2023-05-24T22:44:06.936Z,10.20
2023-05-24T22:46:34.034Z,10.20
2023-05-24T22:49:06.232Z,10.30
2023-05-24T22:51:33.401Z,10.20
2023-05-24T22:54:00.733Z,10.20
2023-05-24T22:56:27.680Z,10.40
2023-05-24T22:58:54.667Z,10.40
2023-05-24T23:01:24.092Z,10.30
2023-05-24T23:03:51.469Z,10.40
2023-05-24T23:06:21.262Z,10.30
2023-05-24T23:08:51.546Z,10.40
2023-05-24T23:11:18.596Z,10.30
2023-05-24T23:13:45.573Z,10.30
2023-05-24T23:16:17.935Z,10.30
2023-05-24T23:18:47.579Z,10.20
2023-05-24T23:21:15.252Z,10.20
2023-05-24T23:23:46.192Z,10.30
2023-05-24T23:26:13.319Z,10.40
2023-05-24T23:28:40.505Z,10.40
2023-05-24T23:31:09.715Z,10.50
2023-05-24T23:33:36.662Z,10.50
2023-05-24T23:36:03.956Z,10.60
2023-05-24T23:38:33.221Z,10.60
2023-05-24T23:41:02.496Z,10.60
2023-05-24T23:43:29.438Z,10.50
2023-05-24T23:45:56.398Z,10.40
2023-05-24T23:48:24.254Z,10.20
2023-05-24T23:50:54.418Z,10.20
2023-05-24T23:53:24.609Z,10.20
2023-05-24T23:55:51.640Z,10.20
2023-05-24T23:58:18.564Z,10.20
